Time,TemperatureF,DewpointF,PressureIn,WindDirection,WindDirectionDegrees,WindSpeedMPH,WindSpeedGustMPH,Humidity,HourlyPrecipIn,Conditions,Clouds,dailyrainin,SoftwareType,DateUTC
2013-02-28 00:00:00,48.1,46.2,29.96,SSW,209,0.0,2.0,93,0.00,,FEW250,0.00,VWS V13.01,2013-02-28 06:00:00,
2013-02-28 00:05:00,48.3,46.4,29.97,WNW,291,0.0,3.0,93,0.00,,CLR,0.00,VWS V13.01,2013-02-28 06:05:00,
2013-02-28 00:10:00,48.5,46.6,29.97,WNW,292,0.0,3.0,93,0.00,,CLR,0.00,VWS V13.01,2013-02-28 06:10:00,
2013-02-28 00:15:00,48.6,46.4,29.97,WNW,292,0.0,3.0,92,0.00,,CLR,0.00,VWS V13.01,2013-02-28 06:15:00,
2013-02-28 00:20:00,48.7,46.2,29.97,WNW,292,0.0,0.0,91,0.00,,CLR,0.00,VWS V13.01,2013-02-28 06:20:00,
2013-02-28 00:26:00,48.6,46.1,29.97,WNW,292,0.0,0.0,91,0.00,,CLR,0.00,VWS V13.01,2013-02-28 06:26:00,
2013-02-28 00:31:00,48.5,45.7,29.98,WNW,292,0.0,0.0,90,0.00,,CLR,0.00,VWS V13.01,2013-02-28 06:31:00,
2013-02-28 00:36:00,48.3,45.5,29.97,WNW,292,0.0,0.0,90,0.00,,CLR,0.00,VWS V13.01,2013-02-28 06:36:00,
2013-02-28 00:41:00,48.2,45.1,29.97,WNW,292,0.0,0.0,89,0.00,,CLR,0.00,VWS V13.01,2013-02-28 06:41:00,
2013-02-28 00:46:00,48.0,44.9,29.97,WNW,292,0.0,0.0,89,0.00,,CLR,0.00,VWS V13.01,2013-02-28 06:46:00,
2013-02-28 00:51:00,47.9,44.8,29.98,WNW,292,0.0,0.0,89,0.00,,CLR,0.00,VWS V13.01,2013-02-28 06:51:00,
2013-02-28 00:56:00,47.8,44.7,29.98,WNW,292,0.0,0.0,89,0.00,,CLR,0.00,VWS V13.01,2013-02-28 06:56:00,
2013-02-28 01:01:00,47.6,44.2,29.98,WNW,292,0.0,0.0,88,0.00,,CLR,0.00,VWS V13.01,2013-02-28 07:01:00,
2013-02-28 01:06:00,47.4,44.0,29.98,WNW,292,0.0,0.0,88,0.00,,CLR,0.00,VWS V13.01,2013-02-28 07:06:00,
2013-02-28 01:11:00,47.3,43.9,29.98,WNW,292,0.0,0.0,88,0.00,,CLR,0.00,VWS V13.01,2013-02-28 07:11:00,
2013-02-28 01:16:00,47.2,43.8,29.98,WNW,292,0.0,0.0,88,0.00,,CLR,0.00,VWS V13.01,2013-02-28 07:16:00,
2013-02-28 01:21:00,47.1,43.4,29.98,WNW,292,0.0,0.0,87,0.00,,CLR,0.00,VWS V13.01,2013-02-28 07:21:00,
2013-02-28 01:26:00,47.0,43.3,29.98,WNW,292,0.0,0.0,87,0.00,,CLR,0.00,VWS V13.01,2013-02-28 07:26:00,
2013-02-28 01:31:00,47.1,43.1,29.98,WNW,292,0.0,0.0,86,0.00,,CLR,0.00,VWS V13.01,2013-02-28 07:31:00,
2013-02-28 01:36:00,47.2,42.6,29.98,WNW,291,0.0,1.0,84,0.00,,CLR,0.00,VWS V13.01,2013-02-28 07:36:00,
2013-02-28 01:42:00,47.4,42.2,29.98,WNW,292,0.0,1.0,82,0.00,,CLR,0.00,VWS V13.01,2013-02-28 07:42:00,
2013-02-28 01:47:00,47.6,42.4,29.98,WNW,292,0.0,0.0,82,0.00,,CLR,0.00,VWS V13.01,2013-02-28 07:47:00,
2013-02-28 01:52:00,47.7,42.2,29.98,WNW,292,0.0,0.0,81,0.00,,CLR,0.00,VWS V13.01,2013-02-28 07:52:00,
2013-02-28 01:57:00,47.7,41.8,29.98,WNW,292,0.0,0.0,80,0.00,,CLR,0.00,VWS V13.01,2013-02-28 07:57:00,
2013-02-28 02:02:00,47.8,41.6,29.98,WNW,296,0.0,0.0,79,0.00,,FEW070,0.00,VWS V13.01,2013-02-28 08:02:00,
2013-02-28 02:07:00,47.9,41.7,29.98,WNW,296,0.0,0.0,79,0.00,,FEW070,0.00,VWS V13.01,2013-02-28 08:07:00,
2013-02-28 02:12:00,47.9,41.4,29.98,WNW,296,0.0,0.0,78,0.00,,FEW070,0.00,VWS V13.01,2013-02-28 08:12:00,
2013-02-28 02:17:00,47.9,41.4,29.98,WNW,296,0.0,1.0,78,0.00,,FEW070,0.00,VWS V13.01,2013-02-28 08:17:00,
2013-02-28 02:22:00,47.9,41.4,29.98,WNW,296,0.0,1.0,78,0.00,,FEW070,0.00,VWS V13.01,2013-02-28 08:22:00,
2013-02-28 02:27:00,47.8,41.3,29.98,WNW,296,0.0,4.0,78,0.00,,FEW070,0.00,VWS V13.01,2013-02-28 08:27:00,
2013-02-28 02:32:00,47.9,41.0,29.98,WNW,296,0.0,0.0,77,0.00,,FEW070,0.00,VWS V13.01,2013-02-28 08:32:00,
2013-02-28 02:37:00,47.9,41.0,29.98,WNW,298,0.0,1.0,77,0.00,,FEW070,0.00,VWS V13.01,2013-02-28 08:37:00,
2013-02-28 02:42:00,47.9,40.7,29.98,WNW,298,0.0,4.0,76,0.00,,FEW070,0.00,VWS V13.01,2013-02-28 08:42:00,
2013-02-28 02:47:00,47.9,41.0,29.98,WNW,298,0.0,0.0,77,0.00,,FEW070,0.00,VWS V13.01,2013-02-28 08:47:00,
2013-02-28 02:53:00,47.7,40.8,29.98,WNW,298,0.0,0.0,77,0.00,,FEW070,0.00,VWS V13.01,2013-02-28 08:53:00,
2013-02-28 02:58:00,47.5,40.7,29.98,WNW,298,0.0,2.0,77,0.00,,FEW070,0.00,VWS V13.01,2013-02-28 08:58:00,
2013-02-28 03:03:00,47.3,40.5,29.98,WNW,298,0.0,0.0,77,0.00,,FEW065,0.00,VWS V13.01,2013-02-28 09:03:00,
2013-02-28 03:08:00,47.2,40.7,29.98,WNW,298,0.0,0.0,78,0.00,,FEW065,0.00,VWS V13.01,2013-02-28 09:08:00,
2013-02-28 03:13:00,46.9,40.4,29.98,WNW,298,0.0,0.0,78,0.00,,FEW065,0.00,VWS V13.01,2013-02-28 09:13:00,
2013-02-28 03:18:00,46.7,40.2,29.99,WNW,298,0.0,0.0,78,0.00,,FEW065,0.00,VWS V13.01,2013-02-28 09:18:00,
2013-02-28 03:23:00,46.5,40.3,29.99,WNW,298,0.0,3.0,79,0.00,,FEW065,0.00,VWS V13.01,2013-02-28 09:23:00,
2013-02-28 03:28:00,46.4,40.2,29.98,WNW,298,0.0,3.0,79,0.00,,FEW065,0.00,VWS V13.01,2013-02-28 09:28:00,
2013-02-28 03:33:00,46.2,40.1,29.98,WNW,298,0.0,2.0,79,0.00,,FEW065,0.00,VWS V13.01,2013-02-28 09:33:00,
2013-02-28 03:38:00,46.2,40.1,29.99,WNW,298,0.0,3.0,79,0.00,,FEW065,0.00,VWS V13.01,2013-02-28 09:38:00,
2013-02-28 03:43:00,46.1,40.3,29.99,WNW,298,0.0,3.0,80,0.00,,FEW065,0.00,VWS V13.01,2013-02-28 09:43:00,
2013-02-28 03:48:00,46.1,40.3,29.99,NW,315,0.0,4.0,80,0.00,,FEW065,0.00,VWS V13.01,2013-02-28 09:48:00,
2013-02-28 03:53:00,46.1,40.3,29.99,NW,314,0.0,4.0,80,0.00,,FEW065,0.00,VWS V13.01,2013-02-28 09:53:00,
2013-02-28 03:58:00,46.1,40.3,29.99,NW,315,0.0,4.0,80,0.00,,FEW065,0.00,VWS V13.01,2013-02-28 09:58:00,
2013-02-28 04:03:00,46.1,40.3,29.99,NW,315,0.0,2.0,80,0.00,,CLR,0.00,VWS V13.01,2013-02-28 10:03:00,
2013-02-28 04:08:00,46.1,40.3,29.99,NW,316,0.0,3.0,80,0.00,,CLR,0.00,VWS V13.01,2013-02-28 10:08:00,
2013-02-28 04:13:00,46.1,40.3,29.99,NW,317,0.0,3.0,80,0.00,,CLR,0.00,VWS V13.01,2013-02-28 10:13:00,
2013-02-28 04:19:00,46.0,39.9,30.00,NW,317,0.0,1.0,79,0.00,,CLR,0.00,VWS V13.01,2013-02-28 10:19:00,
2013-02-28 04:24:00,46.0,40.2,30.00,NNW,343,1.0,6.0,80,0.00,,CLR,0.00,VWS V13.01,2013-02-28 10:24:00,
2013-02-28 04:29:00,45.9,40.1,30.00,NNW,340,3.0,6.0,80,0.00,,CLR,0.00,VWS V13.01,2013-02-28 10:29:00,
2013-02-28 04:34:00,45.7,39.9,30.00,NNW,341,0.0,4.0,80,0.00,,CLR,0.00,VWS V13.01,2013-02-28 10:34:00,
2013-02-28 04:39:00,45.6,39.8,30.00,NNW,340,0.0,4.0,80,0.00,,CLR,0.00,VWS V13.01,2013-02-28 10:39:00,
2013-02-28 04:44:00,45.4,39.6,30.01,NNW,336,0.0,5.0,80,0.00,,CLR,0.00,VWS V13.01,2013-02-28 10:44:00,
2013-02-28 04:49:00,45.3,39.8,30.01,NNW,335,0.0,5.0,81,0.00,,CLR,0.00,VWS V13.01,2013-02-28 10:49:00,
2013-02-28 04:54:00,45.1,39.6,30.01,NNW,342,2.0,7.0,81,0.00,,CLR,0.00,VWS V13.01,2013-02-28 10:54:00,
2013-02-28 04:59:00,45.0,39.5,30.02,NNW,343,0.0,7.0,81,0.00,,CLR,0.00,VWS V13.01,2013-02-28 10:59:00,
2013-02-28 05:04:00,44.8,39.7,30.02,NNW,342,0.0,0.0,82,0.00,,CLR,0.00,VWS V13.01,2013-02-28 11:04:00,
2013-02-28 05:09:00,44.6,39.5,30.01,NNW,343,0.0,2.0,82,0.00,,CLR,0.00,VWS V13.01,2013-02-28 11:09:00,
2013-02-28 05:14:00,44.3,39.2,30.01,NNW,343,0.0,2.0,82,0.00,,CLR,0.00,VWS V13.01,2013-02-28 11:14:00,
2013-02-28 05:19:00,44.1,39.3,30.02,NNW,342,0.0,0.0,83,0.00,,CLR,0.00,VWS V13.01,2013-02-28 11:19:00,
2013-02-28 05:24:00,43.9,39.1,30.02,NNW,342,0.0,0.0,83,0.00,,CLR,0.00,VWS V13.01,2013-02-28 11:24:00,
2013-02-28 05:29:00,43.6,38.8,30.02,NNW,343,0.0,0.0,83,0.00,,CLR,0.00,VWS V13.01,2013-02-28 11:29:00,
2013-02-28 05:34:00,43.4,38.9,30.02,NNW,343,0.0,0.0,84,0.00,,CLR,0.00,VWS V13.01,2013-02-28 11:34:00,
2013-02-28 05:39:00,43.2,38.7,30.03,NNW,342,0.0,0.0,84,0.00,,CLR,0.00,VWS V13.01,2013-02-28 11:39:00,
2013-02-28 05:44:00,43.0,38.5,30.02,NNW,343,0.0,0.0,84,0.00,,CLR,0.00,VWS V13.01,2013-02-28 11:44:00,
2013-02-28 05:49:00,42.8,38.6,30.03,NNW,343,0.0,0.0,85,0.00,,CLR,0.00,VWS V13.01,2013-02-28 11:49:00,
2013-02-28 05:54:00,42.6,38.4,30.02,NNW,343,0.0,0.0,85,0.00,,CLR,0.00,VWS V13.01,2013-02-28 11:54:00,
2013-02-28 05:59:00,42.4,38.2,30.03,NNW,343,0.0,0.0,85,0.00,,CLR,0.00,VWS V13.01,2013-02-28 11:59:00,
2013-02-28 06:04:00,42.2,38.3,30.03,NNW,343,0.0,0.0,86,0.00,,FEW200,0.00,VWS V13.01,2013-02-28 12:04:00,
2013-02-28 06:09:00,41.9,38.0,30.03,NNW,343,0.0,0.0,86,0.00,,FEW200,0.00,VWS V13.01,2013-02-28 12:09:00,
2013-02-28 06:14:00,41.6,37.7,30.03,NNW,342,0.0,0.0,86,0.00,,FEW200,0.00,VWS V13.01,2013-02-28 12:14:00,
2013-02-28 06:20:00,41.3,37.7,30.03,NNW,342,0.0,0.0,87,0.00,,FEW200,0.00,VWS V13.01,2013-02-28 12:20:00,
2013-02-28 06:25:00,41.0,37.4,30.03,NNW,342,0.0,0.0,87,0.00,,FEW200,0.00,VWS V13.01,2013-02-28 12:25:00,
2013-02-28 06:30:00,40.7,37.4,30.04,NNW,343,0.0,0.0,88,0.00,,FEW200,0.00,VWS V13.01,2013-02-28 12:30:00,
2013-02-28 06:35:00,40.5,37.2,30.04,NNW,343,0.0,0.0,88,0.00,,FEW200,0.00,VWS V13.01,2013-02-28 12:35:00,
2013-02-28 06:40:00,40.2,37.2,30.04,NNW,343,0.0,0.0,89,0.00,,FEW200,0.00,VWS V13.01,2013-02-28 12:40:00,
2013-02-28 06:45:00,40.1,37.1,30.04,NNW,342,0.0,0.0,89,0.00,,FEW200,0.00,VWS V13.01,2013-02-28 12:45:00,
2013-02-28 06:50:00,40.1,37.4,30.04,NNW,343,0.0,0.0,90,0.00,,FEW200,0.00,VWS V13.01,2013-02-28 12:50:00,
2013-02-28 06:55:00,40.2,37.5,30.04,NNW,343,0.0,0.0,90,0.00,,FEW200,0.00,VWS V13.01,2013-02-28 12:55:00,
2013-02-28 07:00:00,40.4,37.7,30.04,NNW,342,0.0,0.0,90,0.00,,FEW200,0.00,VWS V13.01,2013-02-28 13:00:00,
2013-02-28 07:05:00,40.7,38.3,30.04,NNW,343,0.0,0.0,91,0.00,,FEW200,0.00,VWS V13.01,2013-02-28 13:05:00,
2013-02-28 07:10:00,41.2,38.8,30.04,NNW,343,0.0,1.0,91,0.00,,FEW200,0.00,VWS V13.01,2013-02-28 13:10:00,
2013-02-28 07:15:00,41.9,39.5,30.05,NNW,342,0.0,1.0,91,0.00,,FEW200,0.00,VWS V13.01,2013-02-28 13:15:00,
2013-02-28 07:20:00,42.6,39.9,30.05,NNW,342,0.0,0.0,90,0.00,,FEW200,0.00,VWS V13.01,2013-02-28 13:20:00,
2013-02-28 07:25:00,43.1,39.8,30.05,NNW,343,0.0,0.0,88,0.00,,FEW200,0.00,VWS V13.01,2013-02-28 13:25:00,
2013-02-28 07:30:00,43.7,40.1,30.05,NNW,342,0.0,0.0,87,0.00,,FEW200,0.00,VWS V13.01,2013-02-28 13:30:00,
2013-02-28 07:35:00,44.2,40.6,30.05,NNW,342,0.0,0.0,87,0.00,,FEW200,0.00,VWS V13.01,2013-02-28 13:35:00,
2013-02-28 07:40:00,44.7,40.5,30.05,NNW,342,0.0,4.0,85,0.00,,FEW200,0.00,VWS V13.01,2013-02-28 13:40:00,
2013-02-28 07:45:00,45.0,40.5,30.06,NNW,342,0.0,4.0,84,0.00,,FEW200,0.00,VWS V13.01,2013-02-28 13:45:00,
2013-02-28 07:50:00,45.4,40.9,30.06,NNW,341,0.0,2.0,84,0.00,,FEW200,0.00,VWS V13.01,2013-02-28 13:50:00,
2013-02-28 07:55:00,45.8,40.9,30.06,NNW,341,0.0,2.0,83,0.00,,FEW200,0.00,VWS V13.01,2013-02-28 13:55:00,
2013-02-28 08:00:00,46.2,41.0,30.06,NNW,341,0.0,4.0,82,0.00,,FEW200,0.00,VWS V13.01,2013-02-28 14:00:00,
2013-02-28 08:05:00,46.6,40.8,30.06,NNW,338,0.0,5.0,80,0.00,,FEW200,0.00,VWS V13.01,2013-02-28 14:05:00,
2013-02-28 08:10:00,46.9,40.4,30.07,NNW,334,0.0,5.0,78,0.00,,FEW200,0.00,VWS V13.01,2013-02-28 14:10:00,
2013-02-28 08:27:00,48.3,39.7,30.07,North,355,0.0,7.0,72,0.00,,FEW200,0.00,VWS V13.01,2013-02-28 14:27:00,
2013-02-28 08:32:00,48.7,39.7,30.07,North,355,0.0,1.0,71,0.00,,FEW200,0.00,VWS V13.01,2013-02-28 14:32:00,
2013-02-28 08:37:00,49.1,40.1,30.06,NNW,347,0.0,4.0,71,0.00,,FEW200,0.00,VWS V13.01,2013-02-28 14:37:00,
2013-02-28 08:42:00,49.6,39.5,30.07,NW,320,0.0,6.0,68,0.00,,FEW200,0.00,VWS V13.01,2013-02-28 14:42:00,
2013-02-28 08:48:00,49.9,39.4,30.07,NW,311,0.0,4.0,67,0.00,,FEW200,0.00,VWS V13.01,2013-02-28 14:48:00,
2013-02-28 08:53:00,50.2,38.5,30.06,NW,307,0.0,7.0,64,0.00,,FEW200,0.00,VWS V13.01,2013-02-28 14:53:00,
2013-02-28 10:11:00,53.7,39.3,30.06,NNW,330,0.0,10.0,58,0.00,,FEW200,0.00,VWS V13.01,2013-02-28 16:11:00,
2013-02-28 10:16:00,54.1,37.4,30.05,North,350,6.0,11.0,53,0.00,,FEW200,0.00,VWS V13.01,2013-02-28 16:16:00,
2013-02-28 10:21:00,54.2,37.5,30.06,NW,326,0.0,7.0,53,0.00,,FEW200,0.00,VWS V13.01,2013-02-28 16:21:00,
2013-02-28 10:26:00,54.5,38.2,30.06,NW,321,0.0,9.0,54,0.00,,FEW200,0.00,VWS V13.01,2013-02-28 16:26:00,
2013-02-28 10:31:00,54.7,37.9,30.06,NW,316,4.0,11.0,53,0.00,,BKN180,0.00,VWS V13.01,2013-02-28 16:31:00,
2013-02-28 10:36:00,54.8,37.5,30.06,NW,319,2.0,10.0,52,0.00,,BKN180,0.00,VWS V13.01,2013-02-28 16:36:00,
2013-02-28 10:41:00,55.0,37.7,30.06,NW,311,0.0,10.0,52,0.00,,BKN180,0.00,VWS V13.01,2013-02-28 16:41:00,
2013-02-28 10:46:00,55.2,37.4,30.06,NW,309,0.0,13.0,51,0.00,,BKN180,0.00,VWS V13.01,2013-02-28 16:46:00,
2013-02-28 10:51:00,55.0,37.2,30.05,NW,317,0.0,12.0,51,0.00,,BKN180,0.00,VWS V13.01,2013-02-28 16:51:00,
2013-02-28 10:56:00,55.2,37.9,30.05,NW,315,3.0,12.0,52,0.00,,BKN180,0.00,VWS V13.01,2013-02-28 16:56:00,
2013-02-28 11:01:00,55.4,37.1,30.05,NW,325,4.0,12.0,50,0.00,,BKN180,0.00,VWS V13.01,2013-02-28 17:01:00,
2013-02-28 11:06:00,55.2,36.9,30.05,NW,306,4.0,6.0,50,0.00,,BKN180,0.00,VWS V13.01,2013-02-28 17:06:00,
2013-02-28 11:11:00,55.7,36.8,30.05,NW,306,4.0,6.0,49,0.00,,BKN180,0.00,VWS V13.01,2013-02-28 17:11:00,
2013-02-28 11:16:00,56.2,36.8,30.05,NW,319,0.0,12.0,48,0.00,,BKN180,0.00,VWS V13.01,2013-02-28 17:16:00,
2013-02-28 11:21:00,56.5,37.1,30.05,NW,320,4.0,10.0,48,0.00,,BKN180,0.00,VWS V13.01,2013-02-28 17:21:00,
2013-02-28 11:26:00,56.6,36.6,30.05,WNW,296,7.0,10.0,47,0.00,,BKN180,0.00,VWS V13.01,2013-02-28 17:26:00,
2013-02-28 11:31:00,56.4,37.0,30.04,NW,307,0.0,10.0,48,0.00,,BKN180,0.00,VWS V13.01,2013-02-28 17:31:00,
2013-02-28 11:36:00,56.4,38.5,30.04,NW,320,0.0,8.0,51,0.00,,BKN180,0.00,VWS V13.01,2013-02-28 17:36:00,
2013-02-28 11:52:00,57.1,38.7,30.03,NW,310,3.0,4.0,50,0.00,,BKN180,0.00,VWS V13.01,2013-02-28 17:52:00,
2013-02-28 11:57:00,57.7,37.6,30.03,NW,313,0.0,5.0,47,0.00,,BKN180,0.00,VWS V13.01,2013-02-28 17:57:00,
2013-02-28 12:02:00,57.7,37.6,30.03,WNW,290,0.0,3.0,47,0.00,,OVC200,0.00,VWS V13.01,2013-02-28 18:02:00,
2013-02-28 12:07:00,57.6,37.5,30.03,WNW,292,6.0,6.0,47,0.00,,OVC200,0.00,VWS V13.01,2013-02-28 18:07:00,
2013-02-28 12:12:00,57.7,36.0,30.03,NW,315,3.0,15.0,44,0.00,,OVC200,0.00,VWS V13.01,2013-02-28 18:12:00,
2013-02-28 12:17:00,57.5,35.8,30.02,NW,311,2.0,7.0,44,0.00,,OVC200,0.00,VWS V13.01,2013-02-28 18:17:00,
2013-02-28 12:22:00,57.7,36.5,30.02,NW,326,0.0,12.0,45,0.00,,OVC200,0.00,VWS V13.01,2013-02-28 18:22:00,
2013-02-28 12:27:00,57.8,36.6,30.02,NW,313,0.0,12.0,45,0.00,,OVC200,0.00,VWS V13.01,2013-02-28 18:27:00,
2013-02-28 12:33:00,57.7,36.5,30.02,WNW,290,0.0,0.0,45,0.00,,OVC200,0.00,VWS V13.01,2013-02-28 18:33:00,
2013-02-28 12:38:00,57.8,35.5,30.02,NW,316,0.0,6.0,43,0.00,,OVC200,0.00,VWS V13.01,2013-02-28 18:38:00,
2013-02-28 12:43:00,58.1,35.7,30.02,WNW,302,4.0,9.0,43,0.00,,OVC200,0.00,VWS V13.01,2013-02-28 18:43:00,
2013-02-28 12:48:00,58.1,37.5,30.01,NW,311,0.0,6.0,46,0.00,,OVC200,0.00,VWS V13.01,2013-02-28 18:48:00,
2013-02-28 12:53:00,58.4,34.2,30.01,NW,326,0.0,10.0,40,0.00,,OVC200,0.00,VWS V13.01,2013-02-28 18:53:00,
2013-02-28 12:58:00,58.4,34.8,30.01,NW,319,3.0,10.0,41,0.00,,OVC200,0.00,VWS V13.01,2013-02-28 18:58:00,
2013-02-28 13:03:00,58.4,34.2,30.01,NNW,334,2.0,8.0,40,0.00,,BKN200,0.00,VWS V13.01,2013-02-28 19:03:00,
2013-02-28 13:08:00,58.2,33.4,30.01,WNW,301,4.0,11.0,39,0.00,,BKN200,0.00,VWS V13.01,2013-02-28 19:08:00,
2013-02-28 13:13:00,57.8,34.9,30.00,WNW,301,4.0,11.0,42,0.00,,BKN200,0.00,VWS V13.01,2013-02-28 19:13:00,
2013-02-28 13:18:00,57.8,33.0,30.00,NW,311,5.0,11.0,39,0.00,,BKN200,0.00,VWS V13.01,2013-02-28 19:18:00,
2013-02-28 13:23:00,57.8,34.3,30.00,WSW,250,0.0,11.0,41,0.00,,BKN200,0.00,VWS V13.01,2013-02-28 19:23:00,
2013-02-28 13:28:00,57.9,35.0,30.00,West,269,0.0,11.0,42,0.00,,BKN200,0.00,VWS V13.01,2013-02-28 19:28:00,
2013-02-28 13:33:00,58.0,33.8,30.00,West,267,0.0,1.0,40,0.00,,BKN200,0.00,VWS V13.01,2013-02-28 19:33:00,
2013-02-28 13:38:00,58.0,32.6,30.00,NW,317,1.0,7.0,38,0.00,,BKN200,0.00,VWS V13.01,2013-02-28 19:38:00,
2013-02-28 13:43:00,57.9,31.1,30.00,NW,311,0.0,7.0,36,0.00,,BKN200,0.00,VWS V13.01,2013-02-28 19:43:00,
2013-02-28 13:48:00,57.7,31.0,30.00,NNW,336,0.0,10.0,36,0.00,,BKN200,0.00,VWS V13.01,2013-02-28 19:48:00,
2013-02-28 13:53:00,57.7,31.6,30.00,NNW,328,0.0,11.0,37,0.00,,BKN200,0.00,VWS V13.01,2013-02-28 19:53:00,
2013-02-28 13:58:00,57.6,31.5,30.00,NW,315,5.0,11.0,37,0.00,,BKN200,0.00,VWS V13.01,2013-02-28 19:58:00,
2013-02-28 14:03:00,57.5,31.5,30.00,NW,311,1.0,5.0,37,0.00,,OVC200,0.00,VWS V13.01,2013-02-28 20:03:00,
2013-02-28 14:08:00,57.2,29.1,29.99,West,265,0.0,14.0,34,0.00,,OVC200,0.00,VWS V13.01,2013-02-28 20:08:00,
2013-02-28 14:13:00,57.0,30.3,29.99,WNW,298,0.0,14.0,36,0.00,,OVC200,0.00,VWS V13.01,2013-02-28 20:13:00,
2013-02-28 14:18:00,56.7,30.7,29.99,WNW,299,3.0,4.0,37,0.00,,OVC200,0.00,VWS V13.01,2013-02-28 20:18:00,
2013-02-28 14:24:00,56.6,30.6,30.00,NNW,336,0.0,8.0,37,0.00,,OVC200,0.00,VWS V13.01,2013-02-28 20:24:00,
2013-02-28 14:29:00,56.6,30.6,30.00,NNW,331,0.0,8.0,37,0.00,,OVC200,0.00,VWS V13.01,2013-02-28 20:29:00,
2013-02-28 14:34:00,56.3,29.7,30.00,NW,311,3.0,12.0,36,0.00,,OVC200,0.00,VWS V13.01,2013-02-28 20:34:00,
2013-02-28 14:39:00,56.1,30.9,30.00,NW,315,2.0,12.0,38,0.00,,OVC200,0.00,VWS V13.01,2013-02-28 20:39:00,
2013-02-28 14:44:00,56.0,31.4,30.00,NW,315,0.0,12.0,39,0.00,,OVC200,0.00,VWS V13.01,2013-02-28 20:44:00,
2013-02-28 14:49:00,55.9,32.0,30.00,NW,314,0.0,0.0,40,0.00,,OVC200,0.00,VWS V13.01,2013-02-28 20:49:00,
2013-02-28 14:54:00,55.9,32.6,30.00,NW,312,3.0,5.0,41,0.00,,OVC200,0.00,VWS V13.01,2013-02-28 20:54:00,
2013-02-28 14:59:00,55.8,32.5,30.00,NW,313,0.0,8.0,41,0.00,,OVC200,0.00,VWS V13.01,2013-02-28 20:59:00,
2013-02-28 15:04:00,55.8,31.2,29.99,NW,318,0.0,9.0,39,0.00,,OVC120,0.00,VWS V13.01,2013-02-28 21:04:00,
2013-02-28 15:09:00,55.7,31.1,29.99,WNW,299,3.0,9.0,39,0.00,,OVC120,0.00,VWS V13.01,2013-02-28 21:09:00,
2013-02-28 15:14:00,55.6,30.4,29.99,WNW,294,0.0,10.0,38,0.00,,OVC120,0.00,VWS V13.01,2013-02-28 21:14:00,
2013-02-28 15:19:00,55.4,30.9,29.99,NW,310,4.0,6.0,39,0.00,,OVC120,0.00,VWS V13.01,2013-02-28 21:19:00,
2013-02-28 15:24:00,55.2,31.3,29.99,NNW,327,0.0,9.0,40,0.00,,OVC120,0.00,VWS V13.01,2013-02-28 21:24:00,
2013-02-28 15:29:00,55.1,31.2,29.99,NW,325,2.0,9.0,40,0.00,,OVC120,0.00,VWS V13.01,2013-02-28 21:29:00,
2013-02-28 15:34:00,54.9,31.0,30.00,NW,319,3.0,6.0,40,0.00,,OVC120,0.00,VWS V13.01,2013-02-28 21:34:00,
2013-02-28 15:39:00,54.7,30.9,30.00,WNW,302,0.0,6.0,40,0.00,,OVC120,0.00,VWS V13.01,2013-02-28 21:39:00,
2013-02-28 15:44:00,54.6,30.8,30.00,NW,304,1.0,6.0,40,0.00,,OVC120,0.00,VWS V13.01,2013-02-28 21:44:00,
2013-02-28 15:49:00,54.5,31.3,30.00,NW,316,0.0,4.0,41,0.00,,OVC120,0.00,VWS V13.01,2013-02-28 21:49:00,
2013-02-28 15:54:00,54.3,31.7,30.00,WNW,302,0.0,8.0,42,0.00,,OVC120,0.00,VWS V13.01,2013-02-28 21:54:00,
2013-02-28 15:59:00,54.1,32.1,30.00,NW,319,5.0,9.0,43,0.00,,OVC120,0.00,VWS V13.01,2013-02-28 21:59:00,
2013-02-28 16:04:00,53.9,32.5,30.00,NW,322,4.0,5.0,44,0.00,,OVC120,0.00,VWS V13.01,2013-02-28 22:04:00,
2013-02-28 16:09:00,53.7,32.9,30.00,NW,326,0.0,6.0,45,0.00,,OVC120,0.00,VWS V13.01,2013-02-28 22:09:00,
2013-02-28 16:15:00,53.5,32.7,30.00,NW,319,0.0,9.0,45,0.00,,OVC120,0.00,VWS V13.01,2013-02-28 22:15:00,
2013-02-28 16:20:00,53.2,32.4,30.00,NW,306,0.0,7.0,45,0.00,,OVC120,0.00,VWS V13.01,2013-02-28 22:20:00,
2013-02-28 16:25:00,53.0,32.8,30.00,NNW,331,1.0,7.0,46,0.00,,OVC120,0.00,VWS V13.01,2013-02-28 22:25:00,
2013-02-28 16:30:00,52.8,33.2,30.00,NNW,337,2.0,10.0,47,0.00,,OVC120,0.00,VWS V13.01,2013-02-28 22:30:00,
2013-02-28 16:35:00,52.5,32.9,29.99,NNW,336,0.0,5.0,47,0.00,,OVC120,0.00,VWS V13.01,2013-02-28 22:35:00,
2013-02-28 16:40:00,52.3,33.7,29.99,WNW,292,2.0,7.0,49,0.00,,OVC120,0.00,VWS V13.01,2013-02-28 22:40:00,
2013-02-28 16:45:00,52.2,33.6,30.00,NW,313,0.0,7.0,49,0.00,,OVC120,0.00,VWS V13.01,2013-02-28 22:45:00,
2013-02-28 16:50:00,52.0,33.5,30.00,WNW,298,0.0,7.0,49,0.00,,OVC120,0.00,VWS V13.01,2013-02-28 22:50:00,
2013-02-28 16:55:00,51.8,33.8,30.00,NW,306,0.0,7.0,50,0.00,,OVC120,0.00,VWS V13.01,2013-02-28 22:55:00,
2013-02-28 17:00:00,51.6,33.6,30.00,WNW,303,0.0,7.0,50,0.00,,OVC120,0.00,VWS V13.01,2013-02-28 23:00:00,
2013-02-28 17:05:00,51.5,34.0,30.00,WNW,302,0.0,4.0,51,0.00,,OVC120,0.00,VWS V13.01,2013-02-28 23:05:00,
2013-02-28 17:10:00,51.4,33.9,30.00,NW,304,1.0,6.0,51,0.00,,OVC120,0.00,VWS V13.01,2013-02-28 23:10:00,
2013-02-28 17:15:00,51.2,34.2,30.00,NW,305,0.0,6.0,52,0.00,,OVC120,0.00,VWS V13.01,2013-02-28 23:15:00,
2013-02-28 17:20:00,51.1,34.6,30.00,NW,306,0.0,5.0,53,0.00,,OVC120,0.00,VWS V13.01,2013-02-28 23:20:00,
2013-02-28 17:25:00,50.9,34.9,30.00,NW,306,0.0,5.0,54,0.00,,OVC120,0.00,VWS V13.01,2013-02-28 23:25:00,
2013-02-28 17:30:00,50.8,35.2,30.00,NW,307,0.0,5.0,55,0.00,,OVC120,0.00,VWS V13.01,2013-02-28 23:30:00,
2013-02-28 17:35:00,50.6,35.5,30.00,NW,308,2.0,3.0,56,0.00,,OVC120,0.00,VWS V13.01,2013-02-28 23:35:00,
2013-02-28 17:41:00,50.4,35.8,30.00,NW,309,0.0,4.0,57,0.00,,OVC120,0.00,VWS V13.01,2013-02-28 23:41:00,
2013-02-28 17:46:00,50.2,35.6,30.00,NW,310,0.0,4.0,57,0.00,,OVC120,0.00,VWS V13.01,2013-02-28 23:46:00,
2013-02-28 17:51:00,50.1,35.9,30.00,NW,307,0.0,5.0,58,0.00,,OVC120,0.00,VWS V13.01,2013-02-28 23:51:00,
2013-02-28 18:02:00,49.7,36.0,30.01,NW,307,2.0,4.0,59,0.00,,OVC120,0.00,VWS V13.01,2013-03-01 00:02:00,
2013-02-28 18:16:00,49.3,36.0,30.02,NW,313,2.0,5.0,60,0.00,,OVC120,0.00,VWS V13.01,2013-03-01 00:16:00,
2013-02-28 18:21:00,49.2,35.9,30.01,NW,311,3.0,4.0,60,0.00,,OVC120,0.00,VWS V13.01,2013-03-01 00:21:00,
2013-02-28 18:26:00,49.0,35.7,30.01,NW,311,0.0,4.0,60,0.00,,OVC120,0.00,VWS V13.01,2013-03-01 00:26:00,
2013-02-28 18:31:00,48.9,36.1,30.01,NW,312,0.0,4.0,61,0.00,,BKN200,0.00,VWS V13.01,2013-03-01 00:31:00,
2013-02-28 18:36:00,48.8,36.4,30.01,NW,312,0.0,0.0,62,0.00,,BKN200,0.00,VWS V13.01,2013-03-01 00:36:00,
2013-02-28 18:41:00,48.7,36.3,30.01,NW,311,0.0,2.0,62,0.00,,BKN200,0.00,VWS V13.01,2013-03-01 00:41:00,
2013-02-28 18:46:00,48.5,36.5,30.01,NW,313,0.0,2.0,63,0.00,,BKN200,0.00,VWS V13.01,2013-03-01 00:46:00,
2013-02-28 18:51:00,48.4,36.4,30.01,NW,313,0.0,1.0,63,0.00,,BKN200,0.00,VWS V13.01,2013-03-01 00:51:00,
2013-02-28 18:56:00,48.3,36.3,30.01,NW,313,0.0,3.0,63,0.00,,BKN200,0.00,VWS V13.01,2013-03-01 00:56:00,
2013-02-28 19:01:00,48.2,36.2,30.01,NW,312,0.0,4.0,63,0.00,,BKN200,0.00,VWS V13.01,2013-03-01 01:01:00,
2013-02-28 19:06:00,48.1,36.1,30.02,NW,312,0.0,2.0,63,0.00,,BKN200,0.00,VWS V13.01,2013-03-01 01:06:00,
2013-02-28 19:11:00,48.1,36.5,30.02,NW,311,0.0,2.0,64,0.00,,BKN200,0.00,VWS V13.01,2013-03-01 01:11:00,
2013-02-28 19:16:00,47.9,36.3,30.02,NW,312,0.0,2.0,64,0.00,,BKN200,0.00,VWS V13.01,2013-03-01 01:16:00,
2013-02-28 19:21:00,47.9,36.3,30.03,NW,312,0.0,0.0,64,0.00,,BKN200,0.00,VWS V13.01,2013-03-01 01:21:00,
2013-02-28 19:26:00,47.8,36.2,30.04,NW,311,0.0,0.0,64,0.00,,BKN200,0.00,VWS V13.01,2013-03-01 01:26:00,
2013-02-28 19:31:00,47.7,36.5,30.04,NW,311,0.0,0.0,65,0.00,,BKN200,0.00,VWS V13.01,2013-03-01 01:31:00,
2013-02-28 19:36:00,47.6,36.4,30.03,NW,311,0.0,1.0,65,0.00,,BKN200,0.00,VWS V13.01,2013-03-01 01:36:00,
2013-02-28 19:41:00,47.4,36.6,30.03,NW,312,0.0,1.0,66,0.00,,BKN200,0.00,VWS V13.01,2013-03-01 01:41:00,
2013-02-28 19:47:00,47.4,36.6,30.03,NW,311,0.0,0.0,66,0.00,,BKN200,0.00,VWS V13.01,2013-03-01 01:47:00,
2013-02-28 19:51:00,47.2,36.4,30.03,NW,313,0.0,0.0,66,0.00,,BKN200,0.00,VWS V13.01,2013-03-01 01:51:00,
2013-02-28 19:56:00,47.2,36.8,30.03,NW,312,0.0,0.0,67,0.00,,BKN200,0.00,VWS V13.01,2013-03-01 01:56:00,
2013-02-28 20:02:00,47.0,36.6,30.03,NW,312,0.0,0.0,67,0.00,,BKN200,0.00,VWS V13.01,2013-03-01 02:02:00,
2013-02-28 20:07:00,46.9,36.5,30.03,NW,312,0.0,0.0,67,0.00,,BKN200,0.00,VWS V13.01,2013-03-01 02:07:00,
2013-02-28 20:12:00,46.8,36.4,30.03,NW,311,0.0,0.0,67,0.00,,BKN200,0.00,VWS V13.01,2013-03-01 02:12:00,
2013-02-28 20:17:00,46.7,36.7,30.04,NW,312,0.0,0.0,68,0.00,,BKN200,0.00,VWS V13.01,2013-03-01 02:17:00,
2013-02-28 20:22:00,46.7,36.7,30.04,NW,312,0.0,0.0,68,0.00,,BKN200,0.00,VWS V13.01,2013-03-01 02:22:00,
2013-02-28 20:27:00,46.6,37.0,30.04,NW,312,0.0,0.0,69,0.00,,BKN200,0.00,VWS V13.01,2013-03-01 02:27:00,
2013-02-28 20:32:00,46.5,36.9,30.05,NW,312,0.0,0.0,69,0.00,,BKN200,0.00,VWS V13.01,2013-03-01 02:32:00,
2013-02-28 20:37:00,46.4,37.2,30.05,NW,312,0.0,0.0,70,0.00,,BKN200,0.00,VWS V13.01,2013-03-01 02:37:00,
2013-02-28 20:42:00,46.3,37.1,30.05,NW,312,0.0,0.0,70,0.00,,BKN200,0.00,VWS V13.01,2013-03-01 02:42:00,
2013-02-28 20:47:00,46.3,37.4,30.05,NW,312,0.0,0.0,71,0.00,,BKN200,0.00,VWS V13.01,2013-03-01 02:47:00,
2013-02-28 20:52:00,46.2,37.3,30.05,NW,312,0.0,0.0,71,0.00,,BKN200,0.00,VWS V13.01,2013-03-01 02:52:00,
2013-02-28 20:57:00,46.1,36.9,30.06,NW,312,0.0,0.0,70,0.00,,BKN200,0.00,VWS V13.01,2013-03-01 02:57:00,
2013-02-28 21:02:00,46.1,36.9,30.06,NW,311,0.0,0.0,70,0.00,,BKN200,0.00,VWS V13.01,2013-03-01 03:02:00,
2013-02-28 21:07:00,46.1,36.9,30.07,NW,312,0.0,0.0,70,0.00,,BKN200,0.00,VWS V13.01,2013-03-01 03:07:00,
2013-02-28 21:12:00,46.1,36.9,30.06,NW,312,0.0,0.0,70,0.00,,BKN200,0.00,VWS V13.01,2013-03-01 03:12:00,
2013-02-28 21:17:00,46.1,36.9,30.06,NW,312,0.0,0.0,70,0.00,,BKN200,0.00,VWS V13.01,2013-03-01 03:17:00,
2013-02-28 21:22:00,46.0,36.8,30.06,NW,312,0.0,0.0,70,0.00,,BKN200,0.00,VWS V13.01,2013-03-01 03:22:00,
2013-02-28 21:27:00,46.0,36.8,30.07,NW,311,0.0,0.0,70,0.00,,BKN200,0.00,VWS V13.01,2013-03-01 03:27:00,
2013-02-28 21:32:00,45.9,36.7,30.07,NW,312,0.0,0.0,70,0.00,,BKN200,0.00,VWS V13.01,2013-03-01 03:32:00,
2013-02-28 21:38:00,45.8,36.6,30.07,NW,312,0.0,0.0,70,0.00,,BKN200,0.00,VWS V13.01,2013-03-01 03:38:00,
2013-02-28 21:43:00,45.8,36.6,30.07,NW,312,0.0,0.0,70,0.00,,BKN200,0.00,VWS V13.01,2013-03-01 03:43:00,
2013-02-28 21:48:00,45.7,36.8,30.07,NW,312,0.0,0.0,71,0.00,,BKN200,0.00,VWS V13.01,2013-03-01 03:48:00,
2013-02-28 21:53:00,45.7,36.5,30.07,NW,312,0.0,0.0,70,0.00,,BKN200,0.00,VWS V13.01,2013-03-01 03:53:00,
2013-02-28 21:58:00,45.7,36.8,30.07,NW,312,0.0,0.0,71,0.00,,BKN200,0.00,VWS V13.01,2013-03-01 03:58:00,
2013-02-28 22:03:00,45.6,36.8,30.07,NW,312,0.0,0.0,71,0.00,,BKN200,0.00,VWS V13.01,2013-03-01 04:03:00,
2013-02-28 22:08:00,45.6,36.8,30.07,NW,312,0.0,1.0,71,0.00,,BKN200,0.00,VWS V13.01,2013-03-01 04:08:00,
2013-02-28 22:13:00,45.6,36.8,30.07,NW,311,0.0,1.0,71,0.00,,BKN200,0.00,VWS V13.01,2013-03-01 04:13:00,
2013-02-28 22:18:00,45.5,36.7,30.07,NW,312,0.0,0.0,71,0.00,,BKN200,0.00,VWS V13.01,2013-03-01 04:18:00,
2013-02-28 22:23:00,45.6,36.0,30.07,NW,314,0.0,3.0,69,0.00,,BKN200,0.00,VWS V13.01,2013-03-01 04:23:00,
2013-02-28 22:28:00,45.7,36.1,30.07,NW,312,0.0,5.0,69,0.00,,BKN200,0.00,VWS V13.01,2013-03-01 04:28:00,
2013-02-28 22:33:00,45.8,35.8,30.07,NW,318,0.0,5.0,68,0.00,,BKN200,0.00,VWS V13.01,2013-03-01 04:33:00,
2013-02-28 22:38:00,45.9,36.0,30.07,NW,316,2.0,5.0,68,0.00,,BKN200,0.00,VWS V13.01,2013-03-01 04:38:00,
2013-02-28 22:43:00,46.0,35.7,30.08,NW,317,0.0,5.0,67,0.00,,BKN200,0.00,VWS V13.01,2013-03-01 04:43:00,
2013-02-28 22:48:00,46.0,35.7,30.08,NW,317,0.0,1.0,67,0.00,,BKN200,0.00,VWS V13.01,2013-03-01 04:48:00,
2013-02-28 22:53:00,46.0,35.3,30.08,NW,317,0.0,3.0,66,0.00,,BKN200,0.00,VWS V13.01,2013-03-01 04:53:00,
2013-02-28 22:58:00,46.0,35.3,30.08,NW,317,0.0,3.0,66,0.00,,BKN200,0.00,VWS V13.01,2013-03-01 04:58:00,
2013-02-28 23:00:00,46.0,35.3,30.08,NW,317,0.0,3.0,66,0.00,,BKN200,0.00,VWS V13.01,2013-03-01 05:00:00,
2013-02-28 23:01:00,46.0,35.3,30.08,NW,321,0.0,4.0,66,0.00,,OVC200,0.00,VWS V13.01,2013-03-01 05:01:00,
2013-02-28 23:06:00,46.0,34.9,30.08,NW,321,0.0,1.0,65,0.00,,OVC200,0.00,VWS V13.01,2013-03-01 05:06:00,
2013-02-28 23:11:00,46.0,34.9,30.08,NW,321,0.0,1.0,65,0.00,,OVC200,0.00,VWS V13.01,2013-03-01 05:11:00,
2013-02-28 23:16:00,46.0,34.9,30.08,NW,324,0.0,4.0,65,0.00,,OVC200,0.00,VWS V13.01,2013-03-01 05:16:00,
2013-02-28 23:21:00,46.0,34.9,30.08,NW,323,0.0,1.0,65,0.00,,OVC200,0.00,VWS V13.01,2013-03-01 05:21:00,
2013-02-28 23:26:00,45.9,34.8,30.08,NW,323,0.0,1.0,65,0.00,,OVC200,0.00,VWS V13.01,2013-03-01 05:26:00,
2013-02-28 23:31:00,45.8,35.1,30.08,NW,324,0.0,1.0,66,0.00,,OVC200,0.00,VWS V13.01,2013-03-01 05:31:00,
2013-02-28 23:36:00,45.8,34.7,30.08,NW,324,1.0,3.0,65,0.00,,OVC200,0.00,VWS V13.01,2013-03-01 05:36:00,
2013-02-28 23:41:00,45.7,34.6,30.08,NW,324,0.0,3.0,65,0.00,,OVC200,0.00,VWS V13.01,2013-03-01 05:41:00,
2013-02-28 23:46:00,45.6,34.9,30.08,NW,324,0.0,3.0,66,0.00,,OVC200,0.00,VWS V13.01,2013-03-01 05:46:00,
2013-02-28 23:51:00,45.5,34.8,30.08,NW,323,0.0,0.0,66,0.00,,OVC200,0.00,VWS V13.01,2013-03-01 05:51:00,
2013-02-28 23:56:00,45.4,34.7,30.08,NW,323,0.0,1.0,66,0.00,,OVC200,0.00,VWS V13.01,2013-03-01 05:56:00,